Airfield :
LOGIN :

Register | Disclaimer

   EN    FR    IT 

 










Legend :    VFR   Marginal VFR   IFR   Intensive IFR   Very Intensive IFR
Visi :
Ceiling :
>= 8 km
>= 3000ft
5 to 8 km
1000 to 3000 ft
1500m to 5 km
500 to 1000 ft
800 to 1500m
200 to 500 ft
< 800m
< 200 ft
Symbols :   Thunderstorms  Fog  Heavy snow  Heavy precipitations  Wind > 20 kt
SIGMETs :     Misc.  Thunderstorms  Icing  Turbulence  Mountain Waves  Volcanic Ashes







- Airport Elevation : 202 ft
- IATA code : LGW
- Download approach charts


EGKK - London Gatwick

CURRENT METAR :
  • 251520Z VRB05KT 9999 FEW032 25/19 Q1019

EXPIRED METARs :
  • 251450Z VRB04KT 9999 FEW028 25/19 Q1019
  • 251420Z VRB05G18KT 9999 FEW026 25/19 Q1018
  • 251350Z 34006KT 310V050 9999 FEW022 SCT035 24/19 Q1018
  • 251320Z 30006KT 250V340 9999 FEW021 BKN028 23/19 Q1018
  • 251250Z VRB06G18KT 9999 FEW020 BKN028 23/19 Q1018

TAF TAF EGKK
Valid from the 25 at 12:00 until the 26 at 18:00 UTC


251059Z 2512/2618 34006KT 9999 SCT025
BECMG 2517/2520 04010KT
PROB30
TEMPO 2521/2602 BKN014
BECMG 2601/2604 8000 BKN008
PROB30 2603/2608 4000 BR BKN004
BECMG 2608/2611 9999 SCT016
No reported NOTAMs for that airfield.
1 SIGMET reported for the London FIR (EGTT) :
 
Embedded thunderstorms
EGTT SIGMET 04 VALID 251300/251700 EGRR
EGTT LONDON FIR EMBD TS FCST WI N5446 E00441 - N5302 W00002 - N5455 E00147 - N5500 E00214 - N5500 E00448 - N5446 E00441 TOP FL350 MOV NE 15KT WKN=



MET'MAP, your aeronautical weather chart ! - Copyright ORBIFLY December 2007 - Disclaimer

ORBIFLY MET'MAP TEAM :

Programming & Development : Alexandra Zaïnal
Concept & Development : Baudouin d'Aumeries
Co-Development & Prog : Marc-Olivier Méhu
Technical & hardware support : Manuel Goepfert

Contact : metmap@orbifly.com




SOURCES & CREDITS :

   NOAA